Time;durP1;ratioP1;P1;durP2;ratioP2;P2;SDS_P1;SDS_P2;PMS_P1;PMS_P2;Temp;Humidity;BMP_temperature;BMP_pressure;BME280_temperature;BME280_humidity;BME280_pressure;Samples;Min_cycle;Max_cycle;Signal;HPM_P1;HPM_P2
2022/10/13 00:00:40;;;;;;;12.80;7.25;;;;;;;;;;5075574;28;20036;-75
2022/10/13 00:03:06;;;;;;;7.28;6.47;;;;;;;;;;5075500;28;20044;-74
2022/10/13 00:05:32;;;;;;;9.63;6.82;;;;;;;;;;5075478;28;20551;-74
2022/10/13 00:07:59;;;;;;;14.07;6.90;;;;;;;;;;5075689;28;20128;-74
2022/10/13 00:10:25;;;;;;;8.07;6.20;;;;;;;;;;5075668;28;20044;-75
2022/10/13 00:12:52;;;;;;;8.90;6.53;;;;;;;;;;5075695;28;20080;-74
2022/10/13 00:15:19;;;;;;;10.55;6.63;;;;;;;;;;5075270;28;20068;-74
2022/10/13 00:17:45;;;;;;;8.55;6.05;;;;;;;;;;5075228;28;20459;-74
2022/10/13 00:20:11;;;;;;;13.50;7.10;;;;;;;;;;5075184;28;20403;-75
2022/10/13 00:22:38;;;;;;;9.05;6.47;;;;;;;;;;5075437;28;20097;-74
2022/10/13 00:25:04;;;;;;;8.20;6.28;;;;;;;;;;5075385;28;20082;-74
2022/10/13 00:27:30;;;;;;;12.05;6.28;;;;;;;;;;5075302;28;20039;-74
2022/10/13 00:29:57;;;;;;;9.25;5.45;;;;;;;;;;5075124;28;20046;-74
2022/10/13 00:32:23;;;;;;;13.50;6.00;;;;;;;;;;5075347;28;20110;-74
2022/10/13 00:34:49;;;;;;;10.00;6.75;;;;;;;;;;5075347;28;20124;-74
2022/10/13 00:37:15;;;;;;;8.35;6.10;;;;;;;;;;5075173;28;20052;-74
2022/10/13 00:39:41;;;;;;;9.02;6.07;;;;;;;;;;5075388;28;20085;-74
2022/10/13 00:42:10;;;;;;;10.10;6.35;;;;;;;;;;5074863;28;20060;-74
2022/10/13 00:44:58;;;;;;;12.23;6.20;;;;;;;;;;5075135;28;20040;-74
2022/10/13 00:47:25;;;;;;;9.07;6.20;;;;;;;;;;5075703;28;20093;-74
2022/10/13 00:49:52;;;;;;;8.07;6.15;;;;;;;;;;5075338;28;20047;-74
2022/10/13 00:52:19;;;;;;;13.20;6.35;;;;;;;;;;5075719;28;20056;-74
2022/10/13 00:54:46;;;;;;;9.63;6.00;;;;;;;;;;5075319;28;20067;-74
2022/10/13 00:57:12;;;;;;;9.30;6.57;;;;;;;;;;5075114;28;20094;-74
2022/10/13 00:59:39;;;;;;;9.23;5.65;;;;;;;;;;5074951;28;20048;-74
2022/10/13 01:02:05;;;;;;;9.07;6.18;;;;;;;;;;5075216;28;20048;-74
2022/10/13 01:04:34;;;;;;;10.02;6.00;;;;;;;;;;5074716;28;20558;-74
2022/10/13 01:07:01;;;;;;;11.10;5.95;;;;;;;;;;5074951;28;20032;-74
2022/10/13 01:09:33;;;;;;;12.82;6.13;;;;;;;;;;5074709;28;20044;-74
2022/10/13 01:12:18;;;;;;;9.85;6.38;;;;;;;;;;5074557;28;20044;-74
2022/10/13 01:14:49;;;;;;;9.18;5.90;;;;;;;;;;5074887;28;20090;-74
2022/10/13 01:17:20;;;;;;;8.23;6.28;;;;;;;;;;5073355;28;20071;-74
2022/10/13 01:20:05;;;;;;;7.15;5.75;;;;;;;;;;5074716;28;20048;-74
2022/10/13 01:22:32;;;;;;;11.30;6.07;;;;;;;;;;5074228;28;20068;-74
2022/10/13 01:25:01;;;;;;;9.02;6.00;;;;;;;;;;5074615;28;20041;-74
2022/10/13 01:27:33;;;;;;;7.65;5.47;;;;;;;;;;5074482;28;20040;-74
2022/10/13 01:30:08;;;;;;;13.35;5.90;;;;;;;;;;5074610;28;20054;-74
2022/10/13 01:32:53;;;;;;;8.68;6.05;;;;;;;;;;5074910;28;20479;-74
2022/10/13 01:35:37;;;;;;;10.57;6.35;;;;;;;;;;5074418;28;20491;-74
2022/10/13 01:38:07;;;;;;;12.13;6.18;;;;;;;;;;5074080;28;20445;-74
2022/10/13 01:40:38;;;;;;;7.90;5.40;;;;;;;;;;5074703;28;20123;-74
2022/10/13 01:43:04;;;;;;;;;;;;;;;;;;5074654;28;20067;-74
2022/10/13 01:45:52;;;;;;;9.90;6.25;;;;;;;;;;5074345;28;19908;-74
2022/10/13 01:48:19;;;;;;;11.13;7.03;;;;;;;;;;5073951;28;20407;-74
2022/10/13 01:50:46;;;;;;;9.13;6.68;;;;;;;;;;5074196;28;20123;-74
2022/10/13 01:53:13;;;;;;;13.70;7.00;;;;;;;;;;5074730;28;20052;-74
2022/10/13 01:55:51;;;;;;;12.18;6.72;;;;;;;;;;5078022;28;20040;-74
2022/10/13 01:58:17;;;;;;;7.45;6.07;;;;;;;;;;5078083;28;20068;-74
2022/10/13 02:00:51;;;;;;;12.13;6.32;;;;;;;;;;5078462;28;20044;-74
2022/10/13 02:03:20;;;;;;;7.70;6.07;;;;;;;;;;5078647;28;20053;-74
2022/10/13 02:05:50;;;;;;;9.27;5.88;;;;;;;;;;5078012;28;20036;-74
2022/10/13 02:08:30;;;;;;;8.32;5.70;;;;;;;;;;5078162;28;20072;-74
2022/10/13 02:11:00;;;;;;;7.22;5.82;;;;;;;;;;5078329;28;20267;-74
2022/10/13 02:13:28;;;;;;;12.10;6.93;;;;;;;;;;5077926;28;20048;-74
2022/10/13 02:15:56;;;;;;;8.55;6.63;;;;;;;;;;5078111;28;20033;-74
2022/10/13 02:18:25;;;;;;;9.48;6.85;;;;;;;;;;5078001;28;20064;-74
2022/10/13 02:20:51;;;;;;;8.93;6.60;;;;;;;;;;5077740;28;20047;-74
2022/10/13 02:23:18;;;;;;;10.48;7.15;;;;;;;;;;5078209;28;20045;-74
2022/10/13 02:25:45;;;;;;;12.75;7.10;;;;;;;;;;5078234;28;20127;-74
2022/10/13 02:28:13;;;;;;;12.25;7.10;;;;;;;;;;5077594;28;20117;-74
2022/10/13 02:30:40;;;;;;;10.02;6.60;;;;;;;;;;5077568;28;20052;-74
2022/10/13 02:33:07;;;;;;;13.38;7.30;;;;;;;;;;5077847;28;20052;-74
2022/10/13 02:35:33;;;;;;;11.00;7.28;;;;;;;;;;5077493;28;20142;-74
2022/10/13 02:38:00;;;;;;;9.88;6.72;;;;;;;;;;5077734;28;20045;-74
2022/10/13 02:40:26;;;;;;;10.70;6.75;;;;;;;;;;5077419;28;20048;-74
2022/10/13 02:42:52;;;;;;;11.35;7.40;;;;;;;;;;5077476;28;20395;-74
2022/10/13 02:45:19;;;;;;;11.27;7.03;;;;;;;;;;5077294;28;20041;-74
2022/10/13 02:47:45;;;;;;;10.50;6.90;;;;;;;;;;5077879;28;20036;-74
2022/10/13 02:50:11;;;;;;;9.45;6.47;;;;;;;;;;5077557;28;20043;-74
2022/10/13 02:52:37;;;;;;;9.55;7.15;;;;;;;;;;5077452;28;20099;-74
2022/10/13 02:55:04;;;;;;;11.50;7.32;;;;;;;;;;5077432;28;20041;-74
2022/10/13 02:57:30;;;;;;;10.13;6.78;;;;;;;;;;5077453;28;20044;-74
2022/10/13 02:59:56;;;;;;;10.77;6.57;;;;;;;;;;5077338;28;20036;-74
2022/10/13 03:02:23;;;;;;;10.77;6.25;;;;;;;;;;5075994;28;20055;-74
2022/10/13 03:04:49;;;;;;;7.25;6.13;;;;;;;;;;5076651;28;20033;-74
2022/10/13 03:07:15;;;;;;;8.80;6.38;;;;;;;;;;5076977;28;20044;-74
2022/10/13 03:09:42;;;;;;;10.35;6.35;;;;;;;;;;5076942;28;20117;-74
2022/10/13 03:12:08;;;;;;;8.98;5.90;;;;;;;;;;5076828;28;20138;-74
2022/10/13 03:14:34;;;;;;;11.45;5.53;;;;;;;;;;5076662;28;20068;-74
2022/10/13 03:17:00;;;;;;;14.15;7.13;;;;;;;;;;5076770;28;20044;-74
2022/10/13 03:19:26;;;;;;;10.57;6.05;;;;;;;;;;5077238;28;20032;-74
2022/10/13 03:21:52;;;;;;;11.43;6.00;;;;;;;;;;5076657;28;20360;-74
2022/10/13 03:24:19;;;;;;;8.13;6.00;;;;;;;;;;5077231;28;20534;-74
2022/10/13 03:26:45;;;;;;;10.05;6.70;;;;;;;;;;5076612;28;20123;-74
2022/10/13 03:29:14;;;;;;;8.63;6.25;;;;;;;;;;5076381;28;20036;-74
2022/10/13 03:31:41;;;;;;;12.43;6.40;;;;;;;;;;5076774;28;20086;-74
2022/10/13 03:34:08;;;;;;;7.70;6.10;;;;;;;;;;5076512;28;20059;-74
2022/10/13 03:36:34;;;;;;;8.85;6.60;;;;;;;;;;5076675;28;20085;-74
2022/10/13 03:39:00;;;;;;;10.50;6.15;;;;;;;;;;5076367;28;20040;-74
2022/10/13 03:41:26;;;;;;;7.78;5.90;;;;;;;;;;5076658;28;20044;-74
2022/10/13 03:43:52;;;;;;;9.25;6.25;;;;;;;;;;5075989;28;20051;-74
2022/10/13 03:46:18;;;;;;;8.27;6.38;;;;;;;;;;5076736;28;20048;-74
2022/10/13 03:48:45;;;;;;;7.63;6.28;;;;;;;;;;5076069;28;20034;-74
2022/10/13 03:51:13;;;;;;;9.93;6.60;;;;;;;;;;5075808;28;20094;-74
2022/10/13 03:53:40;;;;;;;11.90;6.38;;;;;;;;;;5078584;28;20052;-74
2022/10/13 03:56:06;;;;;;;9.38;5.97;;;;;;;;;;5086136;28;20036;-75
2022/10/13 03:58:33;;;;;;;12.38;6.20;;;;;;;;;;5094709;28;20044;-74
2022/10/13 04:01:04;;;;;;;8.35;5.97;;;;;;;;;;5093414;28;20085;-75
2022/10/13 04:03:30;;;;;;;;;;;;;;;;;;5095443;28;20529;-75
2022/10/13 04:06:00;;;;;;;8.75;5.55;;;;;;;;;;5093638;28;19908;-75
2022/10/13 04:08:26;;;;;;;12.32;6.40;;;;;;;;;;5094076;28;20039;-75
2022/10/13 04:11:01;;;;;;;13.23;6.20;;;;;;;;;;5094029;28;20073;-77
2022/10/13 04:13:28;;;;;;;9.13;5.50;;;;;;;;;;5094847;28;20086;-75
2022/10/13 04:15:54;;;;;;;13.52;5.68;;;;;;;;;;5093195;28;20053;-75
2022/10/13 04:18:20;;;;;;;6.68;5.88;;;;;;;;;;5085039;28;20044;-75
2022/10/13 04:20:46;;;;;;;7.95;5.93;;;;;;;;;;5088602;28;20097;-76
2022/10/13 04:23:13;;;;;;;7.65;6.07;;;;;;;;;;5080069;28;20036;-75
2022/10/13 04:25:39;;;;;;;11.50;6.00;;;;;;;;;;5095622;28;20051;-75
2022/10/13 04:28:05;;;;;;;12.90;6.47;;;;;;;;;;5095296;28;20067;-76
2022/10/13 04:30:35;;;;;;;12.63;6.28;;;;;;;;;;5094547;28;20395;-75
2022/10/13 04:33:01;;;;;;;8.98;6.63;;;;;;;;;;5094121;28;20055;-73
2022/10/13 04:35:28;;;;;;;10.90;7.03;;;;;;;;;;5094877;28;20036;-74
2022/10/13 04:37:56;;;;;;;10.23;5.97;;;;;;;;;;5094919;28;20123;-74
2022/10/13 04:40:22;;;;;;;9.10;6.47;;;;;;;;;;5095188;28;20032;-74
2022/10/13 04:42:49;;;;;;;10.57;6.10;;;;;;;;;;5094729;28;20040;-75
2022/10/13 04:45:15;;;;;;;9.70;6.82;;;;;;;;;;5095040;28;20106;-74
2022/10/13 04:47:41;;;;;;;12.77;6.63;;;;;;;;;;5095210;28;20040;-74
2022/10/13 04:50:08;;;;;;;11.13;6.63;;;;;;;;;;5095251;28;20040;-74
2022/10/13 04:52:34;;;;;;;12.13;6.18;;;;;;;;;;5094974;28;20494;-75
2022/10/13 04:55:00;;;;;;;10.57;6.75;;;;;;;;;;5095138;28;20547;-74
2022/10/13 04:57:27;;;;;;;9.93;6.80;;;;;;;;;;5095106;28;20044;-74
2022/10/13 04:59:53;;;;;;;20.25;13.05;;;;;;;;;;5094854;28;20031;-74
2022/10/13 05:02:19;;;;;;;11.25;7.55;;;;;;;;;;5094900;28;20052;-74
2022/10/13 05:04:45;;;;;;;10.07;6.78;;;;;;;;;;5094910;28;20035;-74
2022/10/13 05:07:12;;;;;;;9.88;6.22;;;;;;;;;;5094486;28;20051;-74
2022/10/13 05:09:38;;;;;;;9.52;6.40;;;;;;;;;;5074448;28;20036;-74
2022/10/13 05:12:04;;;;;;;10.93;6.55;;;;;;;;;;5073684;28;20041;-74
2022/10/13 05:14:32;;;;;;;8.85;6.65;;;;;;;;;;5073712;28;20044;-74
2022/10/13 05:16:58;;;;;;;9.85;6.53;;;;;;;;;;5073552;28;20450;-74
2022/10/13 05:19:24;;;;;;;10.40;5.97;;;;;;;;;;5073560;28;20041;-74
2022/10/13 05:21:50;;;;;;;8.15;6.35;;;;;;;;;;5073791;28;20040;-74
2022/10/13 05:24:16;;;;;;;12.48;6.45;;;;;;;;;;5073866;28;20045;-74
2022/10/13 05:26:42;;;;;;;9.60;6.15;;;;;;;;;;5073725;28;20032;-74
2022/10/13 05:29:09;;;;;;;11.10;6.05;;;;;;;;;;5073306;28;20041;-74
2022/10/13 05:31:35;;;;;;;14.00;6.55;;;;;;;;;;5073503;28;20049;-74
2022/10/13 05:34:01;;;;;;;9.88;5.97;;;;;;;;;;5074500;28;20049;-74
2022/10/13 05:36:32;;;;;;;6.72;5.80;;;;;;;;;;5074589;28;20044;-74
2022/10/13 05:38:59;;;;;;;8.57;6.07;;;;;;;;;;5073067;28;20032;-74
2022/10/13 05:41:26;;;;;;;9.77;6.18;;;;;;;;;;5074039;28;20044;-74
2022/10/13 05:44:02;;;;;;;42.25;30.83;;;;;;;;;;5073979;28;20515;-74
2022/10/13 05:46:28;;;;;;;13.77;8.45;;;;;;;;;;5074036;28;20049;-74
2022/10/13 05:48:54;;;;;;;10.68;7.47;;;;;;;;;;5074224;28;20032;-74
2022/10/13 05:51:23;;;;;;;11.43;7.22;;;;;;;;;;5074175;28;20040;-74
2022/10/13 05:53:51;;;;;;;9.20;7.00;;;;;;;;;;5074560;28;20113;-74
2022/10/13 05:56:19;;;;;;;12.10;7.05;;;;;;;;;;5073805;28;20040;-74
2022/10/13 05:58:47;;;;;;;9.15;7.03;;;;;;;;;;5074022;28;20127;-74
2022/10/13 06:01:15;;;;;;;11.82;6.20;;;;;;;;;;5073640;28;20029;-74
2022/10/13 06:03:41;;;;;;;8.18;6.20;;;;;;;;;;5074146;28;20174;-74
2022/10/13 06:06:08;;;;;;;11.52;7.00;;;;;;;;;;5074007;28;20411;-74
2022/10/13 06:08:34;;;;;;;10.90;7.70;;;;;;;;;;5073974;28;20064;-74
2022/10/13 06:11:01;;;;;;;11.82;7.60;;;;;;;;;;5074272;28;20037;-74
2022/10/13 06:13:27;;;;;;;13.48;7.68;;;;;;;;;;5073847;28;20094;-74
2022/10/13 06:15:54;;;;;;;14.30;8.15;;;;;;;;;;5073505;28;20041;-73
2022/10/13 06:18:20;;;;;;;17.92;7.60;;;;;;;;;;5073622;28;20032;-73
2022/10/13 06:20:46;;;;;;;12.88;7.55;;;;;;;;;;5073660;28;20541;-73
2022/10/13 06:23:12;;;;;;;11.23;7.18;;;;;;;;;;5073601;28;20500;-73
2022/10/13 06:25:45;;;;;;;10.32;7.20;;;;;;;;;;5073649;28;20040;-73
2022/10/13 06:28:12;;;;;;;13.02;7.45;;;;;;;;;;5074031;28;20132;-73
2022/10/13 06:30:38;;;;;;;10.15;7.07;;;;;;;;;;5073610;28;20491;-73
2022/10/13 06:33:04;;;;;;;13.25;7.05;;;;;;;;;;5073325;28;20053;-73
2022/10/13 06:35:30;;;;;;;10.82;6.88;;;;;;;;;;5073878;28;20041;-73
2022/10/13 06:37:57;;;;;;;11.65;6.97;;;;;;;;;;5073521;28;20492;-73
2022/10/13 06:40:23;;;;;;;9.38;6.97;;;;;;;;;;5075063;28;20036;-73
2022/10/13 06:42:50;;;;;;;10.57;6.57;;;;;;;;;;5077863;28;20102;-73
2022/10/13 06:45:17;;;;;;;8.15;6.07;;;;;;;;;;5077082;28;20113;-73
2022/10/13 06:47:43;;;;;;;9.45;6.60;;;;;;;;;;5078114;28;20047;-73
2022/10/13 06:50:09;;;;;;;13.32;6.85;;;;;;;;;;5077051;28;20515;-73
2022/10/13 06:52:35;;;;;;;7.43;5.88;;;;;;;;;;5076874;28;20087;-73
2022/10/13 06:55:01;;;;;;;15.55;6.03;;;;;;;;;;5077178;28;20066;-73
2022/10/13 06:57:28;;;;;;;8.00;5.95;;;;;;;;;;5077176;28;20534;-73
2022/10/13 06:59:54;;;;;;;11.00;6.18;;;;;;;;;;5076718;28;20044;-73
2022/10/13 07:02:20;;;;;;;7.63;6.40;;;;;;;;;;5077352;28;20072;-73
2022/10/13 07:04:47;;;;;;;12.98;6.68;;;;;;;;;;5076726;28;20518;-73
2022/10/13 07:07:14;;;;;;;9.00;6.05;;;;;;;;;;5076714;28;20045;-73
2022/10/13 07:09:41;;;;;;;11.38;6.53;;;;;;;;;;5076935;28;20115;-73
2022/10/13 07:12:07;;;;;;;14.23;7.00;;;;;;;;;;5076428;28;20064;-73
2022/10/13 07:14:33;;;;;;;11.48;6.50;;;;;;;;;;5076714;28;20064;-73
2022/10/13 07:17:00;;;;;;;10.07;6.85;;;;;;;;;;5077042;28;20044;-73
2022/10/13 07:19:26;;;;;;;10.40;7.55;;;;;;;;;;5076957;28;20064;-73
2022/10/13 07:21:52;;;;;;;11.05;6.47;;;;;;;;;;5076722;28;20094;-73
2022/10/13 07:24:18;;;;;;;10.15;6.43;;;;;;;;;;5076542;28;20083;-73
2022/10/13 07:26:44;;;;;;;12.68;6.70;;;;;;;;;;5076627;28;20040;-73
2022/10/13 07:29:10;;;;;;;8.68;6.95;;;;;;;;;;5076125;28;20107;-73
2022/10/13 07:31:36;;;;;;;8.82;5.65;;;;;;;;;;5076212;28;20042;-73
2022/10/13 07:34:04;;;;;;;12.75;6.63;;;;;;;;;;5076581;28;20048;-73
2022/10/13 07:36:30;;;;;;;18.17;6.75;;;;;;;;;;5076403;28;20131;-73
2022/10/13 07:38:57;;;;;;;12.18;6.70;;;;;;;;;;5076078;28;20072;-73
2022/10/13 07:41:23;;;;;;;7.20;6.13;;;;;;;;;;5076286;28;20483;-73
2022/10/13 07:43:53;;;;;;;8.77;6.22;;;;;;;;;;5076169;28;20052;-73
2022/10/13 07:46:20;;;;;;;10.95;6.57;;;;;;;;;;5076483;28;20135;-73
2022/10/13 07:48:46;;;;;;;13.82;6.70;;;;;;;;;;5076111;28;20044;-73
2022/10/13 07:51:12;;;;;;;12.88;6.82;;;;;;;;;;5076016;28;20036;-73
2022/10/13 07:53:39;;;;;;;10.55;6.75;;;;;;;;;;5076232;28;20078;-73
2022/10/13 07:56:06;;;;;;;16.80;6.90;;;;;;;;;;5076054;28;20599;-73
2022/10/13 07:58:33;;;;;;;9.50;6.97;;;;;;;;;;5076162;28;20041;-73
2022/10/13 08:00:59;;;;;;;11.73;7.10;;;;;;;;;;5075933;28;20036;-73
2022/10/13 08:03:26;;;;;;;16.27;6.43;;;;;;;;;;5076173;28;20079;-73
2022/10/13 08:05:52;;;;;;;10.93;5.55;;;;;;;;;;5075800;28;20439;-73
2022/10/13 08:08:19;;;;;;;12.20;6.13;;;;;;;;;;5075452;28;20079;-73
2022/10/13 08:10:45;;;;;;;14.23;6.32;;;;;;;;;;5076271;28;20041;-73
2022/10/13 08:13:11;;;;;;;11.18;6.65;;;;;;;;;;5075929;28;20048;-73
2022/10/13 08:15:41;;;;;;;7.97;6.03;;;;;;;;;;5075319;28;20044;-73
2022/10/13 08:18:08;;;;;;;10.75;6.22;;;;;;;;;;5075763;28;20503;-73
2022/10/13 08:20:35;;;;;;;9.80;6.05;;;;;;;;;;5075548;28;20044;-73
2022/10/13 08:23:01;;;;;;;9.82;5.95;;;;;;;;;;5074831;28;20384;-73
2022/10/13 08:25:27;;;;;;;13.32;6.30;;;;;;;;;;5075150;28;20518;-73
2022/10/13 08:27:53;;;;;;;10.20;5.82;;;;;;;;;;5074930;28;20461;-73
2022/10/13 08:30:19;;;;;;;12.98;5.70;;;;;;;;;;5075002;28;20059;-73
2022/10/13 08:32:46;;;;;;;15.98;6.00;;;;;;;;;;5075198;28;20057;-73
2022/10/13 08:35:12;;;;;;;16.15;5.70;;;;;;;;;;5075281;28;20041;-73
2022/10/13 08:37:38;;;;;;;11.07;6.38;;;;;;;;;;5074945;28;20040;-73
2022/10/13 08:40:05;;;;;;;11.32;5.88;;;;;;;;;;5074907;28;20063;-74
2022/10/13 08:42:31;;;;;;;9.70;5.90;;;;;;;;;;5075545;28;20437;-73
2022/10/13 08:45:00;;;;;;;9.13;6.80;;;;;;;;;;5074644;28;20059;-73
2022/10/13 08:47:32;;;;;;;14.95;6.40;;;;;;;;;;5074952;28;20036;-73
2022/10/13 08:50:00;;;;;;;9.18;6.25;;;;;;;;;;5074711;28;20047;-73
2022/10/13 08:52:28;;;;;;;14.27;5.82;;;;;;;;;;5074955;28;20053;-73
2022/10/13 08:54:56;;;;;;;10.10;5.38;;;;;;;;;;5074727;28;20032;-73
2022/10/13 08:57:22;;;;;;;10.02;5.13;;;;;;;;;;5074875;28;20036;-73
2022/10/13 08:59:48;;;;;;;11.98;5.30;;;;;;;;;;5074391;28;20040;-73
2022/10/13 09:02:26;;;;;;;11.15;5.93;;;;;;;;;;5074617;28;20083;-73
2022/10/13 09:04:52;;;;;;;11.00;4.70;;;;;;;;;;5074794;28;20036;-73
2022/10/13 09:07:24;;;;;;;8.07;4.20;;;;;;;;;;5074685;28;20048;-73
2022/10/13 09:09:51;;;;;;;9.15;4.60;;;;;;;;;;5074657;28;20036;-73
2022/10/13 09:12:20;;;;;;;5.43;3.67;;;;;;;;;;5075215;28;20060;-74
2022/10/13 09:14:57;;;;;;;11.68;3.78;;;;;;;;;;5074206;28;20044;-73
2022/10/13 09:17:27;;;;;;;10.13;4.05;;;;;;;;;;5074071;28;20037;-73
2022/10/13 09:20:01;;;;;;;12.60;4.80;;;;;;;;;;5074796;28;20044;-73
2022/10/13 09:22:32;;;;;;;7.68;4.28;;;;;;;;;;5075114;28;20052;-73
2022/10/13 09:24:58;;;;;;;;;;;;;;;;;;5074623;28;20029;-73
2022/10/13 09:27:24;;;;;;;9.68;4.43;;;;;;;;;;5074824;28;19915;-74
2022/10/13 09:29:50;;;;;;;10.45;4.40;;;;;;;;;;5074321;28;20048;-73
2022/10/13 09:32:19;;;;;;;7.50;3.92;;;;;;;;;;5074053;28;20135;-72
2022/10/13 09:34:45;;;;;;;10.95;3.78;;;;;;;;;;5074102;28;20044;-73
2022/10/13 09:37:24;;;;;;;6.05;3.50;;;;;;;;;;5074118;28;20402;-71
2022/10/13 09:40:20;;;;;;;9.48;5.00;;;;;;;;;;5074300;28;20040;-73
2022/10/13 09:42:51;;;;;;;9.32;3.20;;;;;;;;;;5064983;28;20109;-74
2022/10/13 09:45:18;;;;;;;6.10;3.70;;;;;;;;;;5074086;28;20040;-73
2022/10/13 09:47:52;;;;;;;9.85;4.20;;;;;;;;;;5074282;28;20032;-73
2022/10/13 09:50:24;;;;;;;11.25;4.47;;;;;;;;;;5074278;28;20041;-73
2022/10/13 09:52:50;;;;;;;8.25;3.60;;;;;;;;;;5073892;28;20052;-74
2022/10/13 09:55:33;;;;;;;8.50;4.00;;;;;;;;;;5074245;28;20036;-74
2022/10/13 09:58:04;;;;;;;9.25;3.45;;;;;;;;;;5074266;28;20119;-73
2022/10/13 10:00:31;;;;;;;6.55;3.33;;;;;;;;;;5073902;28;20036;-74
2022/10/13 10:03:26;;;;;;;7.03;3.10;;;;;;;;;;5074782;28;20060;-72
2022/10/13 10:05:54;;;;;;;11.05;3.63;;;;;;;;;;5064906;28;20576;-72
2022/10/13 10:08:29;;;;;;;8.02;3.17;;;;;;;;;;5073987;28;20040;-72
2022/10/13 10:10:56;;;;;;;8.88;3.45;;;;;;;;;;5074708;28;20051;-72
2022/10/13 10:13:24;;;;;;;9.52;3.50;;;;;;;;;;5074136;28;20048;-72
2022/10/13 10:15:55;;;;;;;8.27;3.35;;;;;;;;;;5076018;28;20032;-72
2022/10/13 10:18:30;;;;;;;10.23;2.92;;;;;;;;;;5078115;28;20044;-72
2022/10/13 10:21:20;;;;;;;10.43;4.00;;;;;;;;;;5078088;28;20051;-72
2022/10/13 10:23:48;;;;;;;8.52;3.00;;;;;;;;;;5072176;28;20060;-72
2022/10/13 10:26:14;;;;;;;6.72;3.05;;;;;;;;;;5077709;28;20131;-72
2022/10/13 10:28:43;;;;;;;7.35;3.92;;;;;;;;;;5077573;28;20101;-72
2022/10/13 10:31:09;;;;;;;8.18;3.25;;;;;;;;;;5077670;28;20040;-72
2022/10/13 10:33:38;;;;;;;6.45;2.60;;;;;;;;;;5078419;28;20055;-72
2022/10/13 10:36:15;;;;;;;8.73;2.95;;;;;;;;;;5077885;28;20044;-72
2022/10/13 10:38:48;;;;;;;7.40;3.60;;;;;;;;;;5077898;28;20111;-72
2022/10/13 10:41:33;;;;;;;7.03;3.28;;;;;;;;;;5077842;28;20036;-72
2022/10/13 10:44:05;;;;;;;10.57;3.47;;;;;;;;;;5077830;28;20040;-73
2022/10/13 10:46:34;;;;;;;12.13;3.50;;;;;;;;;;5077624;28;20360;-72
2022/10/13 10:49:02;;;;;;;8.00;3.50;;;;;;;;;;5077321;28;20037;-72
2022/10/13 10:51:31;;;;;;;11.73;3.10;;;;;;;;;;5077788;28;20086;-72
2022/10/13 10:54:17;;;;;;;8.95;3.30;;;;;;;;;;5077695;28;20048;-72
2022/10/13 10:56:53;;;;;;;6.93;3.53;;;;;;;;;;5070186;28;20059;-72
2022/10/13 10:59:25;;;;;;;5.25;3.08;;;;;;;;;;5076896;28;20033;-72
2022/10/13 11:02:09;;;;;;;10.15;3.67;;;;;;;;;;5077113;28;20047;-72
2022/10/13 11:04:39;;;;;;;9.07;3.53;;;;;;;;;;5077319;28;20041;-72
2022/10/13 11:07:09;;;;;;;9.43;4.53;;;;;;;;;;5077974;28;20028;-72
2022/10/13 11:09:42;;;;;;;14.95;6.30;;;;;;;;;;5077414;28;20050;-72
2022/10/13 11:12:20;;;;;;;9.98;4.15;;;;;;;;;;5077137;28;20040;-72
2022/10/13 11:14:47;;;;;;;8.30;3.85;;;;;;;;;;5076977;28;20034;-72
2022/10/13 11:17:17;;;;;;;12.48;4.10;;;;;;;;;;5076812;28;20041;-72
2022/10/13 11:19:44;;;;;;;10.95;3.90;;;;;;;;;;5077138;28;20041;-72
2022/10/13 11:22:14;;;;;;;8.30;3.40;;;;;;;;;;5076996;28;20048;-72
2022/10/13 11:24:40;;;;;;;10.02;5.90;;;;;;;;;;5076618;28;20033;-72
2022/10/13 11:27:19;;;;;;;9.13;5.38;;;;;;;;;;5076275;28;20492;-72
2022/10/13 11:29:50;;;;;;;9.50;3.55;;;;;;;;;;5076758;28;20040;-72
2022/10/13 11:35:15;;;;;;;9.57;3.28;;;;;;;;;;5076570;28;20123;-72
2022/10/13 11:37:47;;;;;;;9.93;3.30;;;;;;;;;;5076353;28;20045;-72
2022/10/13 11:40:28;;;;;;;9.82;3.25;;;;;;;;;;5076278;28;20036;-72
2022/10/13 11:43:02;;;;;;;6.82;2.85;;;;;;;;;;5076495;28;20532;-72
2022/10/13 11:45:47;;;;;;;12.20;3.75;;;;;;;;;;5076542;28;20037;-72
2022/10/13 11:48:22;;;;;;;9.13;2.72;;;;;;;;;;5076097;28;20032;-72
2022/10/13 11:51:07;;;;;;;9.02;3.13;;;;;;;;;;5075447;28;20441;-72
2022/10/13 11:53:41;;;;;;;8.25;3.17;;;;;;;;;;5076326;28;20044;-72
2022/10/13 11:56:18;;;;;;;8.02;3.50;;;;;;;;;;5076104;28;20071;-72
2022/10/13 11:58:44;;;;;;;8.30;3.38;;;;;;;;;;5075828;28;20052;-72
2022/10/13 12:01:14;;;;;;;8.80;3.17;;;;;;;;;;5076477;28;20064;-72
2022/10/13 12:03:42;;;;;;;12.10;3.30;;;;;;;;;;5076350;28;20052;-72
2022/10/13 12:06:20;;;;;;;8.73;2.80;;;;;;;;;;5075856;28;20095;-72
2022/10/13 12:08:48;;;;;;;9.88;3.65;;;;;;;;;;5075769;28;20044;-72
2022/10/13 12:11:28;;;;;;;9.18;3.60;;;;;;;;;;5074160;28;20131;-72
2022/10/13 12:13:55;;;;;;;7.75;3.85;;;;;;;;;;5075248;28;20067;-72
2022/10/13 12:16:21;;;;;;;9.02;3.67;;;;;;;;;;5075952;28;20498;-72
2022/10/13 12:18:47;;;;;;;6.65;3.53;;;;;;;;;;5075774;28;20044;-72
2022/10/13 12:21:19;;;;;;;6.97;3.53;;;;;;;;;;5075565;28;20043;-72
2022/10/13 12:23:46;;;;;;;8.70;3.80;;;;;;;;;;5074926;28;20040;-72
2022/10/13 12:26:15;;;;;;;10.07;4.00;;;;;;;;;;5075458;28;20037;-72
2022/10/13 12:28:59;;;;;;;8.75;3.45;;;;;;;;;;5074955;28;20064;-72
2022/10/13 12:31:29;;;;;;;7.25;3.75;;;;;;;;;;5075897;28;20131;-72
2022/10/13 12:33:57;;;;;;;10.30;3.70;;;;;;;;;;5075571;28;20056;-72
2022/10/13 12:36:30;;;;;;;7.13;3.20;;;;;;;;;;5076149;28;20185;-72
2022/10/13 12:38:58;;;;;;;8.30;3.45;;;;;;;;;;5075232;28;20138;-72
2022/10/13 12:41:34;;;;;;;7.40;3.00;;;;;;;;;;5075187;28;20040;-72
2022/10/13 12:44:01;;;;;;;6.28;3.22;;;;;;;;;;5075127;28;20059;-72
2022/10/13 12:46:46;;;;;;;14.57;3.78;;;;;;;;;;5075663;28;20117;-72
2022/10/13 12:49:14;;;;;;;6.32;2.67;;;;;;;;;;5074955;28;20028;-72
2022/10/13 12:51:41;;;;;;;8.77;3.17;;;;;;;;;;5075223;28;20166;-71
2022/10/13 12:54:08;;;;;;;6.88;3.20;;;;;;;;;;5075260;28;20051;-72
2022/10/13 12:56:34;;;;;;;7.05;3.08;;;;;;;;;;5075666;28;20123;-72
2022/10/13 12:59:00;;;;;;;9.52;3.50;;;;;;;;;;5074714;28;20494;-72
2022/10/13 13:01:34;;;;;;;9.68;3.22;;;;;;;;;;5074858;28;20046;-72
2022/10/13 13:04:01;;;;;;;11.85;3.28;;;;;;;;;;5075439;28;20047;-71
2022/10/13 13:06:32;;;;;;;10.68;3.20;;;;;;;;;;5075099;28;20051;-72
2022/10/13 13:09:17;;;;;;;8.50;2.80;;;;;;;;;;5074748;28;20114;-72
2022/10/13 13:11:43;;;;;;;9.60;2.90;;;;;;;;;;5075325;28;20028;-72
2022/10/13 13:14:24;;;;;;;10.13;3.05;;;;;;;;;;5074996;28;20090;-72
2022/10/13 13:17:04;;;;;;;9.15;2.72;;;;;;;;;;5075218;28;20068;-72
2022/10/13 13:19:31;;;;;;;6.37;2.70;;;;;;;;;;5075213;28;20068;-72
2022/10/13 13:21:58;;;;;;;12.40;2.80;;;;;;;;;;5074521;28;20322;-72
2022/10/13 13:24:24;;;;;;;8.05;2.85;;;;;;;;;;5075149;28;20040;-72
2022/10/13 13:26:51;;;;;;;8.75;3.22;;;;;;;;;;5074562;28;20390;-72
2022/10/13 13:29:17;;;;;;;8.35;3.13;;;;;;;;;;5074373;28;20372;-72
2022/10/13 13:31:43;;;;;;;6.78;2.78;;;;;;;;;;5074813;28;20036;-72
2022/10/13 13:34:09;;;;;;;11.45;3.50;;;;;;;;;;5074425;28;20079;-72
2022/10/13 13:36:35;;;;;;;10.15;3.05;;;;;;;;;;5074457;28;20075;-72
2022/10/13 13:39:01;;;;;;;8.45;3.00;;;;;;;;;;5074424;28;20033;-72
2022/10/13 13:41:29;;;;;;;8.02;2.90;;;;;;;;;;5074807;28;20131;-72
2022/10/13 13:43:56;;;;;;;6.68;2.97;;;;;;;;;;5073592;28;20129;-72
2022/10/13 13:46:30;;;;;;;8.40;2.95;;;;;;;;;;5074355;28;20083;-72
2022/10/13 13:48:57;;;;;;;6.15;2.88;;;;;;;;;;5074968;28;20051;-72
2022/10/13 13:51:23;;;;;;;10.18;3.15;;;;;;;;;;5078732;28;20040;-72
2022/10/13 13:53:49;;;;;;;10.77;3.03;;;;;;;;;;5078054;28;20616;-72
2022/10/13 13:56:16;;;;;;;8.13;2.83;;;;;;;;;;5078637;28;20119;-72
2022/10/13 13:58:43;;;;;;;6.55;2.85;;;;;;;;;;5077873;28;20063;-72
2022/10/13 14:01:09;;;;;;;9.57;3.50;;;;;;;;;;5077106;28;20185;-71
2022/10/13 14:03:35;;;;;;;10.57;3.58;;;;;;;;;;5078155;28;20123;-72
2022/10/13 14:06:01;;;;;;;7.57;3.38;;;;;;;;;;5078199;28;20051;-72
2022/10/13 14:08:31;;;;;;;9.05;3.33;;;;;;;;;;5078165;28;20036;-71
2022/10/13 14:10:57;;;;;;;6.95;3.83;;;;;;;;;;5077852;28;20075;-72
2022/10/13 14:13:24;;;;;;;16.92;4.45;;;;;;;;;;5078253;28;20093;-71
2022/10/13 14:15:57;;;;;;;9.38;3.88;;;;;;;;;;5077984;28;20040;-72
2022/10/13 14:18:23;;;;;;;7.63;3.47;;;;;;;;;;5077955;28;20044;-71
2022/10/13 14:20:49;;;;;;;9.80;4.22;;;;;;;;;;5077906;28;20040;-71
2022/10/13 14:23:15;;;;;;;9.93;3.40;;;;;;;;;;5078369;28;20044;-72
2022/10/13 14:25:41;;;;;;;8.85;3.45;;;;;;;;;;5077485;28;20040;-72
2022/10/13 14:28:08;;;;;;;10.40;3.40;;;;;;;;;;5078128;28;20040;-71
2022/10/13 14:30:34;;;;;;;12.25;3.17;;;;;;;;;;5077757;28;20036;-72
2022/10/13 14:33:03;;;;;;;13.90;3.90;;;;;;;;;;5077679;28;20056;-72
2022/10/13 14:35:29;;;;;;;12.93;3.50;;;;;;;;;;5077291;28;20048;-72
2022/10/13 14:37:55;;;;;;;8.38;3.42;;;;;;;;;;5077872;28;20042;-72
2022/10/13 14:40:22;;;;;;;9.35;3.90;;;;;;;;;;5077523;28;20040;-72
2022/10/13 14:42:48;;;;;;;8.45;3.50;;;;;;;;;;5077423;28;20058;-72
2022/10/13 14:45:14;;;;;;;13.02;4.03;;;;;;;;;;5077455;28;20120;-72
2022/10/13 14:47:41;;;;;;;5.80;3.30;;;;;;;;;;5077326;28;20032;-72
2022/10/13 14:50:07;;;;;;;8.77;3.13;;;;;;;;;;5077381;28;20040;-72